sensor_id;sensor_type;location;lat;lon;timestamp;P1;durP1;ratioP1;P2;durP2;ratioP2
58770;SDS011;44539;42.962;1.596;2023-03-01T07:09:50;17.98;;;7.00;;
58770;SDS011;44539;42.962;1.596;2023-03-01T07:12:16;15.55;;;7.13;;
58770;SDS011;44539;42.962;1.596;2023-03-01T07:14:43;14.23;;;6.47;;
58770;SDS011;44539;42.962;1.596;2023-03-01T07:17:09;9.68;;;5.57;;
58770;SDS011;44539;42.962;1.596;2023-03-01T07:19:34;14.75;;;6.07;;
58770;SDS011;44539;42.962;1.596;2023-03-01T07:21:59;12.00;;;5.30;;
58770;SDS011;44539;42.962;1.596;2023-03-01T07:24:25;11.27;;;5.90;;
58770;SDS011;44539;42.962;1.596;2023-03-01T07:26:51;12.95;;;5.55;;
58770;SDS011;44539;42.962;1.596;2023-03-01T07:29:16;10.80;;;6.05;;
58770;SDS011;44539;42.962;1.596;2023-03-01T07:31:43;10.48;;;5.75;;
58770;SDS011;44539;42.962;1.596;2023-03-01T07:34:08;13.35;;;5.03;;
58770;SDS011;44539;42.962;1.596;2023-03-01T07:36:35;11.10;;;6.03;;
58770;SDS011;44539;42.962;1.596;2023-03-01T07:39:01;12.35;;;5.53;;
58770;SDS011;44539;42.962;1.596;2023-03-01T07:41:28;14.15;;;5.97;;
58770;SDS011;44539;42.962;1.596;2023-03-01T07:43:53;9.35;;;5.15;;
58770;SDS011;44539;42.962;1.596;2023-03-01T07:46:19;10.38;;;5.00;;
58770;SDS011;44539;42.962;1.596;2023-03-01T07:48:45;15.52;;;5.65;;
58770;SDS011;44539;42.962;1.596;2023-03-01T07:51:10;9.95;;;5.45;;
58770;SDS011;44539;42.962;1.596;2023-03-01T07:53:35;11.77;;;5.88;;
58770;SDS011;44539;42.962;1.596;2023-03-01T07:56:05;13.77;;;6.15;;
58770;SDS011;44539;42.962;1.596;2023-03-01T07:58:36;12.15;;;6.35;;
58770;SDS011;44539;42.962;1.596;2023-03-01T08:01:06;11.05;;;5.55;;
58770;SDS011;44539;42.962;1.596;2023-03-01T08:03:34;11.80;;;5.88;;
58770;SDS011;44539;42.962;1.596;2023-03-01T08:06:00;12.23;;;6.15;;
58770;SDS011;44539;42.962;1.596;2023-03-01T08:08:26;12.38;;;6.07;;
58770;SDS011;44539;42.962;1.596;2023-03-01T08:10:52;10.85;;;5.75;;
58770;SDS011;44539;42.962;1.596;2023-03-01T08:13:21;12.80;;;5.63;;
58770;SDS011;44539;42.962;1.596;2023-03-01T08:15:50;10.95;;;5.90;;
58770;SDS011;44539;42.962;1.596;2023-03-01T08:18:16;12.05;;;6.15;;
58770;SDS011;44539;42.962;1.596;2023-03-01T08:20:42;13.57;;;5.43;;
58770;SDS011;44539;42.962;1.596;2023-03-01T08:23:08;10.48;;;5.65;;
58770;SDS011;44539;42.962;1.596;2023-03-01T08:25:34;11.02;;;5.80;;
58770;SDS011;44539;42.962;1.596;2023-03-01T08:27:59;11.32;;;5.32;;
58770;SDS011;44539;42.962;1.596;2023-03-01T08:30:24;10.23;;;5.63;;
58770;SDS011;44539;42.962;1.596;2023-03-01T08:32:50;14.23;;;6.47;;
58770;SDS011;44539;42.962;1.596;2023-03-01T08:35:16;11.13;;;5.60;;
58770;SDS011;44539;42.962;1.596;2023-03-01T08:37:42;11.18;;;5.45;;
58770;SDS011;44539;42.962;1.596;2023-03-01T08:40:07;10.35;;;5.25;;
58770;SDS011;44539;42.962;1.596;2023-03-01T08:42:35;13.88;;;5.55;;
58770;SDS011;44539;42.962;1.596;2023-03-01T08:45:01;9.05;;;4.95;;
58770;SDS011;44539;42.962;1.596;2023-03-01T08:47:27;10.70;;;5.35;;
58770;SDS011;44539;42.962;1.596;2023-03-01T08:49:52;10.68;;;4.85;;
58770;SDS011;44539;42.962;1.596;2023-03-01T08:52:19;9.27;;;5.05;;
58770;SDS011;44539;42.962;1.596;2023-03-01T08:54:44;10.80;;;5.57;;
58770;SDS011;44539;42.962;1.596;2023-03-01T08:57:10;10.70;;;5.60;;
58770;SDS011;44539;42.962;1.596;2023-03-01T08:59:35;9.35;;;4.93;;
58770;SDS011;44539;42.962;1.596;2023-03-01T09:02:02;9.75;;;5.57;;
58770;SDS011;44539;42.962;1.596;2023-03-01T09:04:29;9.85;;;4.68;;
58770;SDS011;44539;42.962;1.596;2023-03-01T09:06:54;10.80;;;5.40;;
58770;SDS011;44539;42.962;1.596;2023-03-01T09:09:20;12.80;;;5.80;;
58770;SDS011;44539;42.962;1.596;2023-03-01T09:11:45;11.13;;;5.85;;
58770;SDS011;44539;42.962;1.596;2023-03-01T09:14:12;11.10;;;5.90;;
58770;SDS011;44539;42.962;1.596;2023-03-01T09:16:38;16.23;;;5.35;;
58770;SDS011;44539;42.962;1.596;2023-03-01T09:19:04;20.77;;;6.20;;
58770;SDS011;44539;42.962;1.596;2023-03-01T09:21:30;13.90;;;5.50;;
58770;SDS011;44539;42.962;1.596;2023-03-01T09:23:56;12.18;;;6.10;;
58770;SDS011;44539;42.962;1.596;2023-03-01T09:26:22;14.82;;;5.75;;
58770;SDS011;44539;42.962;1.596;2023-03-01T09:28:50;12.02;;;5.60;;
58770;SDS011;44539;42.962;1.596;2023-03-01T09:31:18;9.85;;;4.55;;
58770;SDS011;44539;42.962;1.596;2023-03-01T09:33:45;12.07;;;5.13;;
58770;SDS011;44539;42.962;1.596;2023-03-01T09:36:13;14.30;;;4.65;;
58770;SDS011;44539;42.962;1.596;2023-03-01T09:38:40;10.95;;;5.50;;
58770;SDS011;44539;42.962;1.596;2023-03-01T09:41:10;14.35;;;5.30;;
58770;SDS011;44539;42.962;1.596;2023-03-01T09:46:37;10.60;;;4.55;;
58770;SDS011;44539;42.962;1.596;2023-03-01T09:49:10;8.20;;;4.57;;
58770;SDS011;44539;42.962;1.596;2023-03-01T09:51:41;8.73;;;4.50;;
58770;SDS011;44539;42.962;1.596;2023-03-01T09:54:08;9.10;;;4.28;;
58770;SDS011;44539;42.962;1.596;2023-03-01T09:59:19;9.15;;;4.72;;
58770;SDS011;44539;42.962;1.596;2023-03-01T10:09:34;8.82;;;4.20;;
58770;SDS011;44539;42.962;1.596;2023-03-01T10:12:02;10.57;;;4.32;;
58770;SDS011;44539;42.962;1.596;2023-03-01T10:14:44;9.38;;;4.53;;
58770;SDS011;44539;42.962;1.596;2023-03-01T10:23:09;12.52;;;4.63;;
58770;SDS011;44539;42.962;1.596;2023-03-01T10:28:02;10.52;;;5.05;;
58770;SDS011;44539;42.962;1.596;2023-03-01T10:30:37;7.35;;;4.60;;
58770;SDS011;44539;42.962;1.596;2023-03-01T10:33:26;9.13;;;4.55;;
58770;SDS011;44539;42.962;1.596;2023-03-01T10:35:52;7.88;;;4.75;;
58770;SDS011;44539;42.962;1.596;2023-03-01T10:38:18;7.43;;;4.30;;
58770;SDS011;44539;42.962;1.596;2023-03-01T10:40:55;10.00;;;5.10;;
58770;SDS011;44539;42.962;1.596;2023-03-01T10:43:23;9.77;;;4.75;;
58770;SDS011;44539;42.962;1.596;2023-03-01T10:45:50;11.75;;;5.35;;
58770;SDS011;44539;42.962;1.596;2023-03-01T10:50:46;8.95;;;4.95;;
58770;SDS011;44539;42.962;1.596;2023-03-01T10:53:29;8.75;;;4.90;;
58770;SDS011;44539;42.962;1.596;2023-03-01T10:56:06;9.73;;;5.35;;
58770;SDS011;44539;42.962;1.596;2023-03-01T10:58:35;9.18;;;4.40;;
58770;SDS011;44539;42.962;1.596;2023-03-01T11:03:42;9.88;;;4.78;;
58770;SDS011;44539;42.962;1.596;2023-03-01T11:08:40;9.80;;;4.82;;
58770;SDS011;44539;42.962;1.596;2023-03-01T11:11:18;9.40;;;4.82;;
58770;SDS011;44539;42.962;1.596;2023-03-01T11:16:38;8.80;;;4.82;;
58770;SDS011;44539;42.962;1.596;2023-03-01T11:21:34;7.97;;;4.55;;
58770;SDS011;44539;42.962;1.596;2023-03-01T11:24:03;8.95;;;4.57;;
58770;SDS011;44539;42.962;1.596;2023-03-01T11:26:31;11.63;;;4.80;;
58770;SDS011;44539;42.962;1.596;2023-03-01T11:29:03;9.10;;;4.63;;
58770;SDS011;44539;42.962;1.596;2023-03-01T11:31:36;9.50;;;4.73;;
58770;SDS011;44539;42.962;1.596;2023-03-01T11:34:10;9.18;;;4.85;;
58770;SDS011;44539;42.962;1.596;2023-03-01T11:39:33;10.02;;;5.05;;
58770;SDS011;44539;42.962;1.596;2023-03-01T11:42:13;8.93;;;4.47;;
58770;SDS011;44539;42.962;1.596;2023-03-01T11:44:43;8.18;;;4.85;;
58770;SDS011;44539;42.962;1.596;2023-03-01T11:50:02;9.23;;;4.70;;
58770;SDS011;44539;42.962;1.596;2023-03-01T11:58:00;9.05;;;4.95;;
58770;SDS011;44539;42.962;1.596;2023-03-01T12:17:43;7.78;;;4.22;;
58770;SDS011;44539;42.962;1.596;2023-03-01T12:20:28;8.70;;;4.35;;
58770;SDS011;44539;42.962;1.596;2023-03-01T12:28:32;7.95;;;4.55;;
58770;SDS011;44539;42.962;1.596;2023-03-01T12:31:08;8.48;;;4.97;;
58770;SDS011;44539;42.962;1.596;2023-03-01T12:36:42;8.40;;;4.63;;
58770;SDS011;44539;42.962;1.596;2023-03-01T12:41:51;8.85;;;4.93;;
58770;SDS011;44539;42.962;1.596;2023-03-01T12:47:30;9.02;;;4.57;;
58770;SDS011;44539;42.962;1.596;2023-03-01T12:50:11;8.85;;;4.70;;
58770;SDS011;44539;42.962;1.596;2023-03-01T12:52:44;10.50;;;5.20;;
58770;SDS011;44539;42.962;1.596;2023-03-01T13:06:23;12.23;;;5.07;;
58770;SDS011;44539;42.962;1.596;2023-03-01T13:26:26;9.20;;;5.60;;
58770;SDS011;44539;42.962;1.596;2023-03-01T13:28:56;7.45;;;4.75;;
58770;SDS011;44539;42.962;1.596;2023-03-01T13:33:51;9.75;;;5.35;;
58770;SDS011;44539;42.962;1.596;2023-03-01T13:47:36;9.20;;;5.10;;
58770;SDS011;44539;42.962;1.596;2023-03-01T13:49:55;9.48;;;4.40;;
58770;SDS011;44539;42.962;1.596;2023-03-01T13:55:42;7.20;;;4.22;;
58770;SDS011;44539;42.962;1.596;2023-03-01T13:58:24;9.32;;;4.85;;
58770;SDS011;44539;42.962;1.596;2023-03-01T14:03:27;7.93;;;4.80;;
58770;SDS011;44539;42.962;1.596;2023-03-01T14:05:58;8.38;;;4.78;;
58770;SDS011;44539;42.962;1.596;2023-03-01T14:08:33;9.70;;;5.85;;
58770;SDS011;44539;42.962;1.596;2023-03-01T14:19:19;8.48;;;4.40;;
58770;SDS011;44539;42.962;1.596;2023-03-01T14:24:49;20.20;;;5.00;;
58770;SDS011;44539;42.962;1.596;2023-03-01T14:27:17;8.00;;;5.15;;
58770;SDS011;44539;42.962;1.596;2023-03-01T14:29:43;7.65;;;4.72;;
58770;SDS011;44539;42.962;1.596;2023-03-01T14:34:54;14.63;;;5.10;;
58770;SDS011;44539;42.962;1.596;2023-03-01T14:37:33;7.35;;;4.90;;
58770;SDS011;44539;42.962;1.596;2023-03-01T14:40:00;9.60;;;4.88;;
58770;SDS011;44539;42.962;1.596;2023-03-01T14:42:30;8.50;;;4.90;;
58770;SDS011;44539;42.962;1.596;2023-03-01T14:45:00;9.52;;;5.30;;
58770;SDS011;44539;42.962;1.596;2023-03-01T14:47:27;9.15;;;5.40;;
58770;SDS011;44539;42.962;1.596;2023-03-01T14:50:09;12.70;;;5.70;;
58770;SDS011;44539;42.962;1.596;2023-03-01T14:52:36;18.85;;;8.30;;
58770;SDS011;44539;42.962;1.596;2023-03-01T14:55:05;11.25;;;6.20;;
58770;SDS011;44539;42.962;1.596;2023-03-01T14:57:42;10.32;;;5.28;;
58770;SDS011;44539;42.962;1.596;2023-03-01T15:00:10;9.48;;;5.45;;
58770;SDS011;44539;42.962;1.596;2023-03-01T15:24:48;9.52;;;5.75;;
58770;SDS011;44539;42.962;1.596;2023-03-01T15:27:15;9.63;;;5.85;;
58770;SDS011;44539;42.962;1.596;2023-03-01T15:29:47;10.35;;;6.00;;
58770;SDS011;44539;42.962;1.596;2023-03-01T15:32:34;11.45;;;5.72;;
58770;SDS011;44539;42.962;1.596;2023-03-01T15:41:30;8.43;;;5.82;;
58770;SDS011;44539;42.962;1.596;2023-03-01T15:43:57;10.20;;;5.57;;
58770;SDS011;44539;42.962;1.596;2023-03-01T15:46:31;11.68;;;6.00;;
58770;SDS011;44539;42.962;1.596;2023-03-01T15:51:31;13.60;;;5.72;;
58770;SDS011;44539;42.962;1.596;2023-03-01T15:53:59;11.05;;;6.45;;
58770;SDS011;44539;42.962;1.596;2023-03-01T15:56:27;9.63;;;5.40;;
58770;SDS011;44539;42.962;1.596;2023-03-01T15:58:53;12.50;;;5.63;;
58770;SDS011;44539;42.962;1.596;2023-03-01T16:01:22;10.07;;;5.28;;
58770;SDS011;44539;42.962;1.596;2023-03-01T16:03:48;13.43;;;5.68;;
58770;SDS011;44539;42.962;1.596;2023-03-01T16:06:13;10.05;;;5.75;;
58770;SDS011;44539;42.962;1.596;2023-03-01T16:08:38;9.20;;;5.13;;
58770;SDS011;44539;42.962;1.596;2023-03-01T16:11:05;9.23;;;5.10;;
58770;SDS011;44539;42.962;1.596;2023-03-01T16:13:38;9.70;;;6.05;;
58770;SDS011;44539;42.962;1.596;2023-03-01T16:16:04;10.75;;;5.70;;
58770;SDS011;44539;42.962;1.596;2023-03-01T16:18:29;9.82;;;5.38;;
58770;SDS011;44539;42.962;1.596;2023-03-01T16:20:55;15.02;;;6.28;;
58770;SDS011;44539;42.962;1.596;2023-03-01T16:23:20;9.30;;;5.45;;
58770;SDS011;44539;42.962;1.596;2023-03-01T16:25:49;9.60;;;5.10;;
58770;SDS011;44539;42.962;1.596;2023-03-01T16:28:15;11.70;;;5.43;;
58770;SDS011;44539;42.962;1.596;2023-03-01T16:30:45;11.25;;;5.65;;
58770;SDS011;44539;42.962;1.596;2023-03-01T16:33:11;17.23;;;5.60;;
58770;SDS011;44539;42.962;1.596;2023-03-01T16:35:39;8.55;;;5.13;;
58770;SDS011;44539;42.962;1.596;2023-03-01T16:38:05;9.95;;;5.38;;
58770;SDS011;44539;42.962;1.596;2023-03-01T16:40:30;11.00;;;6.05;;
58770;SDS011;44539;42.962;1.596;2023-03-01T16:42:56;11.32;;;5.43;;
58770;SDS011;44539;42.962;1.596;2023-03-01T16:45:25;13.45;;;5.88;;
58770;SDS011;44539;42.962;1.596;2023-03-01T16:47:52;10.10;;;5.45;;
58770;SDS011;44539;42.962;1.596;2023-03-01T16:50:18;13.43;;;5.10;;
58770;SDS011;44539;42.962;1.596;2023-03-01T16:52:43;10.82;;;5.82;;
58770;SDS011;44539;42.962;1.596;2023-03-01T16:55:09;9.00;;;5.10;;
58770;SDS011;44539;42.962;1.596;2023-03-01T16:57:35;10.50;;;5.43;;
58770;SDS011;44539;42.962;1.596;2023-03-01T17:00:02;10.55;;;5.57;;
58770;SDS011;44539;42.962;1.596;2023-03-01T17:02:34;9.98;;;5.53;;
58770;SDS011;44539;42.962;1.596;2023-03-01T17:05:00;16.15;;;5.57;;
58770;SDS011;44539;42.962;1.596;2023-03-01T17:07:27;14.50;;;5.45;;
58770;SDS011;44539;42.962;1.596;2023-03-01T17:09:54;9.23;;;5.30;;
58770;SDS011;44539;42.962;1.596;2023-03-01T17:12:19;12.15;;;5.10;;
58770;SDS011;44539;42.962;1.596;2023-03-01T17:14:44;8.90;;;5.22;;
58770;SDS011;44539;42.962;1.596;2023-03-01T17:17:10;10.32;;;5.65;;
58770;SDS011;44539;42.962;1.596;2023-03-01T17:19:36;13.50;;;6.00;;
58770;SDS011;44539;42.962;1.596;2023-03-01T17:22:08;11.77;;;5.78;;
